Time;durP1;ratioP1;P1;durP2;ratioP2;P2;SDS_P1;SDS_P2;PMS_P1;PMS_P2;Temp;Humidity;BMP_temperature;BMP_pressure;BME280_temperature;BME280_humidity;BME280_pressure;Samples;Min_cycle;Max_cycle;Signal;HPM_P1;HPM_P2
2022/05/17 03:59:39;;;;;;;5.43;3.22;;;;;;;18.26;68.50;100377.22;5905038;27;20134;-81
2022/05/17 04:02:42;;;;;;;4.45;3.45;;;;;;;18.33;68.31;100375.22;5357234;33;33637;-81
2022/05/17 04:05:46;;;;;;;3.47;3.17;;;;;;;18.41;68.05;100375.97;5347823;33;32553;-82
2022/05/17 04:08:50;;;;;;;4.72;3.50;;;;;;;18.48;67.90;100371.25;5330524;33;33116;-81
2022/05/17 04:11:52;;;;;;;3.90;3.50;;;;;;;18.58;67.66;100372.37;5319214;33;32600;-82
2022/05/17 04:14:55;;;;;;;4.37;3.30;;;;;;;18.65;67.19;100361.38;5341461;33;33348;-82
2022/05/17 04:17:59;;;;;;;4.93;3.40;;;;;;;18.73;66.46;100369.28;5329044;33;32237;-81
2022/05/17 04:21:03;;;;;;;3.83;3.33;;;;;;;18.83;65.71;100370.59;5340179;33;33366;-82
2022/05/17 04:24:06;;;;;;;5.65;3.53;;;;;;;18.89;66.10;100366.94;5343343;33;32985;-83
2022/05/17 04:27:12;;;;;;;4.85;3.35;;;;;;;18.96;66.17;100364.97;5343111;33;33661;-83
2022/05/17 04:30:16;;;;;;;3.97;3.20;;;;;;;18.95;65.67;100372.31;5343442;33;34224;-83
2022/05/17 04:33:21;;;;;;;4.75;3.17;;;;;;;19.00;65.16;100369.69;5329942;33;32036;-83
2022/05/17 04:36:26;;;;;;;3.83;3.05;;;;;;;19.11;65.04;100373.53;5330503;33;32598;-82
2022/05/17 04:39:30;;;;;;;4.95;3.30;;;;;;;19.12;64.81;100369.72;5343326;33;33509;-83
2022/05/17 04:42:33;;;;;;;5.18;2.97;;;;;;;19.11;64.70;100362.63;5329759;33;32260;-83
2022/05/17 04:45:36;;;;;;;6.15;2.97;;;;;;;19.10;64.87;100365.56;5329794;33;31617;-83
2022/05/17 04:48:39;;;;;;;4.18;2.90;;;;;;;19.07;65.47;100375.06;5343113;33;33825;-83
2022/05/17 04:51:42;;;;;;;2.90;2.60;;;;;;;19.06;65.61;100376.13;5342992;33;33477;-83
2022/05/17 04:54:45;;;;;;;5.00;2.70;;;;;;;19.08;64.84;100375.91;5342881;33;33926;-83
2022/05/17 04:57:47;;;;;;;6.32;3.17;;;;;;;19.08;64.80;100379.47;5329711;33;33071;-83
2022/05/17 05:00:51;;;;;;;4.40;3.37;;;;;;;19.17;65.14;100372.59;5342828;33;33403;-82
2022/05/17 05:03:53;;;;;;;5.78;3.53;;;;;;;19.12;65.97;100374.34;5329455;33;33531;-82
2022/05/17 05:06:56;;;;;;;3.35;2.90;;;;;;;19.08;66.03;100374.00;5342805;33;33148;-83
2022/05/17 05:10:00;;;;;;;3.03;2.62;;;;;;;19.16;66.00;100373.66;5329384;33;32144;-82
2022/05/17 05:13:03;;;;;;;5.65;2.80;;;;;;;19.30;65.04;100371.53;5329319;33;31949;-83
2022/05/17 05:16:14;;;;;;;3.80;2.70;;;;;;;19.36;64.16;100365.13;5342518;33;33435;-83
2022/05/17 05:19:18;;;;;;;4.97;3.55;;;;;;;19.38;64.60;100363.00;5342911;33;33035;-87
2022/05/17 05:22:20;;;;;;;3.80;2.97;;;;;;;19.52;64.45;100362.78;5329208;33;31761;-87
2022/05/17 05:25:23;;;;;;;3.47;2.78;;;;;;;19.69;64.11;100361.84;5324847;33;32613;-83
2022/05/17 05:28:27;;;;;;;3.65;2.67;;;;;;;19.73;64.20;100369.56;5349027;33;33751;-83
2022/05/17 05:31:30;;;;;;;4.30;2.87;;;;;;;19.82;63.59;100376.34;5329667;33;31833;-83
2022/05/17 05:34:33;;;;;;;3.33;2.67;;;;;;;19.97;62.43;100376.66;5329217;33;32128;-83
2022/05/17 05:37:37;;;;;;;4.28;3.20;;;;;;;19.97;62.40;100382.13;5329423;33;32097;-83
2022/05/17 05:40:41;;;;;;;6.97;3.17;;;;;;;19.91;62.59;100380.34;5327678;33;32496;-83
2022/05/17 05:43:44;;;;;;;5.43;2.80;;;;;;;19.94;62.47;100377.16;5339923;33;33210;-83
2022/05/17 05:46:48;;;;;;;3.55;3.20;;;;;;;19.93;62.05;100380.97;5342296;33;33270;-83
2022/05/17 05:49:51;;;;;;;6.12;2.75;;;;;;;19.92;62.54;100384.78;5328471;33;31761;-83
2022/05/17 05:53:07;;;;;;;3.37;3.08;;;;;;;19.93;62.30;100386.41;5341429;33;33476;-83
2022/05/17 05:56:11;;;;;;;3.00;2.70;;;;;;;20.24;61.53;100382.47;5323235;33;32152;-83
2022/05/17 05:59:14;;;;;;;3.53;2.87;;;;;;;20.40;61.15;100386.31;5322656;33;33216;-83
2022/05/17 06:02:17;;;;;;;3.58;2.97;;;;;;;20.41;60.83;100377.03;5326508;33;33439;-83
2022/05/17 06:05:22;;;;;;;5.45;3.33;;;;;;;20.33;60.61;100380.19;5351016;33;33768;-83
2022/05/17 06:08:25;;;;;;;6.12;3.40;;;;;;;20.48;60.58;100369.53;5342435;33;33494;-83
2022/05/17 06:11:28;;;;;;;4.30;3.67;;;;;;;20.54;60.12;100368.59;5339962;33;33316;-83
2022/05/17 06:14:30;;;;;;;5.97;2.97;;;;;;;20.59;59.71;100367.84;5325231;33;31627;-83
2022/05/17 06:17:35;;;;;;;6.30;3.12;;;;;;;20.58;59.98;100369.75;5325531;33;32136;-83
2022/05/17 06:20:38;;;;;;;5.20;3.10;;;;;;;20.62;59.99;100372.81;5337284;33;34298;-83
2022/05/17 06:23:42;;;;;;;7.70;3.42;;;;;;;20.73;60.15;100376.59;5340667;33;33665;-83
2022/05/17 06:26:44;;;;;;;5.32;2.90;;;;;;;20.79;59.89;100381.91;5326093;33;32404;-83
2022/05/17 06:29:47;;;;;;;4.32;3.30;;;;;;;20.93;59.50;100385.19;5323932;33;32591;-83
2022/05/17 06:32:51;;;;;;;4.78;3.45;;;;;;;21.14;59.02;100385.53;5340769;33;33823;-83
2022/05/17 06:35:54;;;;;;;5.68;3.50;;;;;;;21.35;58.82;100393.00;5331036;33;31826;-83
2022/05/17 06:38:57;;;;;;;7.82;3.67;;;;;;;21.57;58.51;100389.56;5343916;33;33234;-83
2022/05/17 06:42:00;;;;;;;5.50;3.33;;;;;;;21.65;58.17;100383.66;5327646;33;31795;-83
2022/05/17 06:45:06;;;;;;;4.85;3.22;;;;;;;21.83;57.43;100388.03;5341220;33;34202;-83
2022/05/17 06:48:09;;;;;;;5.07;3.60;;;;;;;22.03;56.73;100393.00;5329125;33;31793;-82
2022/05/17 06:51:12;;;;;;;6.72;3.47;;;;;;;22.08;56.37;100390.28;5344030;33;33478;-82
2022/05/17 06:54:15;;;;;;;4.60;2.80;;;;;;;22.37;56.53;100385.47;5333087;33;31951;-82
2022/05/17 06:57:17;;;;;;;8.45;2.78;;;;;;;22.41;55.98;100392.97;5340797;33;33418;-81
2022/05/17 07:00:22;;;;;;;3.25;2.92;;;;;;;22.47;56.20;100390.28;5342979;33;33553;-81
2022/05/17 07:03:25;;;;;;;4.97;2.55;;;;;;;22.13;56.05;100393.94;5327577;33;31669;-82
2022/05/17 07:06:28;;;;;;;3.90;3.45;;;;;;;21.79;56.99;100387.72;5351684;33;32466;-82
2022/05/17 07:09:31;;;;;;;3.37;2.83;;;;;;;21.88;57.47;100382.59;5349519;33;33952;-82
2022/05/17 07:15:56;;;;;;;4.97;2.50;;;;;;;21.93;57.55;100396.41;5328451;33;31899;-86
2022/05/17 07:18:59;;;;;;;2.75;2.47;;;;;;;22.14;57.60;100403.84;5337840;33;32507;-82
2022/05/17 07:22:22;;;;;;;4.30;3.08;;;;;;;22.04;57.80;100400.13;5325127;33;32173;-82
2022/05/17 07:25:25;;;;;;;4.10;2.45;;;;;;;22.08;58.26;100396.59;5347541;33;33074;-82
2022/05/17 07:28:28;;;;;;;5.05;2.42;;;;;;;22.20;58.12;100402.03;5324903;33;31905;-82
2022/05/17 07:31:32;;;;;;;6.87;2.60;;;;;;;22.32;58.19;100410.97;5344957;33;33329;-82
2022/05/17 07:34:35;;;;;;;2.97;2.62;;;;;;;22.39;58.55;100400.59;5342939;33;33707;-81
2022/05/17 07:37:38;;;;;;;4.07;2.33;;;;;;;22.59;57.70;100404.69;5329295;33;32294;-81
2022/05/17 07:40:42;;;;;;;4.60;2.70;;;;;;;22.63;58.31;100403.06;5328723;33;31970;-82
2022/05/17 07:43:45;;;;;;;5.90;2.85;;;;;;;22.79;57.64;100404.91;5342917;33;34760;-81
2022/05/17 07:46:48;;;;;;;3.78;2.60;;;;;;;22.69;57.85;100401.22;5334149;33;34668;-81
2022/05/17 07:49:51;;;;;;;3.35;2.62;;;;;;;22.51;58.83;100405.12;5329470;33;31701;-82
2022/05/17 07:52:53;;;;;;;3.62;2.33;;;;;;;22.21;60.19;100411.06;5330241;33;31758;-82
2022/05/17 07:55:56;;;;;;;5.40;2.92;;;;;;;22.01;60.93;100403.37;5328509;33;31940;-82
2022/05/17 07:58:59;;;;;;;2.35;2.15;;;;;;;21.79;61.21;100395.94;5326926;33;32614;-81
2022/05/17 08:02:03;;;;;;;5.72;2.80;;;;;;;21.51;62.22;100408.66;5328845;33;32345;-81
2022/05/17 08:05:09;;;;;;;3.55;2.87;;;;;;;21.29;63.23;100399.47;5328374;33;32289;-81
2022/05/17 08:08:15;;;;;;;7.03;3.40;;;;;;;21.00;64.70;100410.50;5336928;33;31806;-81
2022/05/17 08:11:19;;;;;;;4.62;3.67;;;;;;;20.81;67.48;100420.81;5348250;33;33972;-82
2022/05/17 08:14:23;;;;;;;4.62;3.90;;;;;;;20.17;75.04;100414.53;5334914;33;31737;-82
2022/05/17 08:17:26;;;;;;;7.80;4.40;;;;;;;19.23;84.17;100426.25;5342411;33;33771;-83
2022/05/17 08:20:30;;;;;;;4.72;4.00;;;;;;;18.51;90.98;100419.87;5332738;33;32401;-85
2022/05/17 08:23:34;;;;;;;5.10;4.28;;;;;;;18.18;95.03;100415.66;5340881;33;33735;-85
2022/05/17 08:30:00;;;;;;;5.35;4.55;;;;;;;17.96;93.30;100425.31;5340931;33;33598;-84
2022/05/17 08:33:19;;;;;;;9.00;4.93;;;;;;;18.03;93.77;100435.09;5332514;33;31974;-85
2022/05/17 08:36:25;;;;;;;7.93;4.65;;;;;;;18.25;92.65;100440.09;5347997;33;33706;-84
2022/05/17 08:39:29;;;;;;;6.72;4.80;;;;;;;18.39;91.29;100440.78;5331946;33;31822;-88
2022/05/17 08:42:46;;;;;;;6.45;4.65;;;;;;;18.44;92.11;100443.69;5334843;33;32326;-87
2022/05/17 08:46:09;;;;;;;6.18;4.50;;;;;;;18.48;92.18;100447.59;5347500;33;34433;-83
2022/05/17 08:49:18;;;;;;;5.62;4.40;;;;;;;18.52;92.10;100446.09;5337636;33;31922;-83
2022/05/17 08:52:23;;;;;;;8.02;4.78;;;;;;;18.57;91.47;100448.94;5325750;33;33028;-83
2022/05/17 08:55:36;;;;;;;6.43;4.18;;;;;;;18.62;89.03;100451.00;5337804;33;33034;-82
2022/05/17 08:58:44;;;;;;;5.32;4.30;;;;;;;18.69;85.39;100441.69;5320535;33;32825;-82
2022/05/17 09:01:56;;;;;;;5.65;4.28;;;;;;;18.76;87.50;100442.44;5316830;33;31702;-82
2022/05/17 09:05:04;;;;;;;7.07;4.97;;;;;;;18.51;90.53;100444.41;5331280;33;34870;-82
2022/05/17 09:08:23;;;;;;;5.57;4.32;;;;;;;18.36;94.92;100453.81;5333955;33;33051;-82
2022/05/17 09:11:36;;;;;;;4.82;4.28;;;;;;;18.50;94.32;100457.22;5331985;33;33353;-82
2022/05/17 09:14:46;;;;;;;5.37;4.75;;;;;;;18.82;91.36;100458.97;5331796;33;34366;-82
2022/05/17 09:17:52;;;;;;;6.22;4.62;;;;;;;19.29;92.96;100461.88;5336764;33;34220;-83
2022/05/17 09:20:55;;;;;;;5.93;4.53;;;;;;;19.63;87.74;100463.00;5338695;27;34101;-83
2022/05/17 09:24:04;;;;;;;5.60;4.70;;;;;;;19.75;87.50;100463.87;5329064;33;33092;-83
2022/05/17 09:27:30;;;;;;;5.70;4.43;;;;;;;19.69;85.22;100467.56;5329619;33;33295;-83
2022/05/17 09:30:35;;;;;;;5.85;4.70;;;;;;;19.48;82.75;100458.00;5330239;33;32876;-83
2022/05/17 09:33:40;;;;;;;6.18;4.80;;;;;;;19.45;85.31;100455.72;5348905;33;33179;-82
2022/05/17 09:36:52;;;;;;;4.60;4.15;;;;;;;19.41;86.73;100460.00;5335970;33;33761;-83
2022/05/17 09:39:55;;;;;;;6.15;4.60;;;;;;;19.49;87.26;100456.94;5335845;33;32471;-87
2022/05/17 09:42:59;;;;;;;6.12;4.53;;;;;;;19.73;86.16;100462.44;5335716;33;33793;-87
2022/05/17 09:46:11;;;;;;;6.25;4.25;;;;;;;19.85;85.16;100461.38;5342934;33;32156;-86
2022/05/17 09:53:06;;;;;;;5.78;4.30;;;;;;;19.58;86.47;100465.59;5354371;33;33971;-83
2022/05/17 09:56:09;;;;;;;6.18;4.62;;;;;;;19.08;90.44;100464.06;5340011;33;33465;-83
2022/05/17 09:59:22;;;;;;;5.25;4.30;;;;;;;18.50;94.82;100464.56;5354722;33;32402;-83
2022/05/17 10:02:34;;;;;;;4.87;4.10;;;;;;;18.00;99.53;100459.25;5341579;33;33585;-83
2022/05/17 10:05:37;;;;;;;5.30;4.30;;;;;;;17.82;100.00;100460.03;5343598;33;33176;-83
2022/05/17 10:08:42;;;;;;;5.37;4.32;;;;;;;17.75;100.00;100461.94;5356614;33;33605;-83
2022/05/17 10:11:52;;;;;;;6.03;4.43;;;;;;;17.72;100.00;100462.41;5347706;33;34261;-83
2022/05/17 10:15:04;;;;;;;7.53;4.75;;;;;;;17.89;100.00;100458.91;5351229;33;31835;-81
2022/05/17 10:18:35;;;;;;;7.05;4.70;;;;;;;18.08;100.00;100448.06;5363835;33;33010;-81
2022/05/17 10:21:47;;;;;;;9.02;5.25;;;;;;;18.37;100.00;100454.66;5371717;33;34982;-81
2022/05/17 10:24:57;;;;;;;5.80;4.78;;;;;;;18.71;100.00;100453.19;5345049;33;31762;-88
2022/05/17 10:28:00;;;;;;;6.55;4.80;;;;;;;19.07;94.05;100453.34;5345112;33;33484;-84
2022/05/17 10:31:26;;;;;;;6.62;5.07;;;;;;;19.56;90.41;100454.06;5336762;33;32421;-83
2022/05/17 10:34:57;;;;;;;6.87;4.78;;;;;;;19.67;87.04;100453.28;5327200;33;33269;-83
2022/05/17 10:38:22;;;;;;;8.68;4.90;;;;;;;19.99;83.45;100447.50;5351679;33;33965;-83
2022/05/17 10:41:26;;;;;;;6.35;4.62;;;;;;;20.32;82.77;100441.38;5356616;33;33688;-83
2022/05/17 10:44:58;;;;;;;7.85;4.10;;;;;;;20.55;80.49;100435.06;5339437;33;32106;-83
2022/05/17 10:48:31;;;;;;;5.50;3.65;;;;;;;20.63;80.24;100433.87;5348086;33;32361;-80
2022/05/17 10:52:13;;;;;;;7.05;3.62;;;;;;;20.68;75.01;100433.94;5345479;33;32674;-81
2022/05/17 10:55:17;;;;;;;4.03;3.00;;;;;;;;;;5343225;33;33592;-83
2022/05/17 10:58:35;;;;;;;3.08;2.78;;;;;;;20.65;69.59;100428.97;5362484;33;33806;-83
2022/05/17 11:02:13;;;;;;;4.47;2.80;;;;;;;20.90;71.05;100429.47;5360437;33;33645;-83
2022/05/17 11:05:16;;;;;;;3.53;2.70;;;;;;;21.25;68.71;100429.28;5359622;33;32900;-81
2022/05/17 11:08:26;;;;;;;3.90;2.83;;;;;;;21.52;65.18;100426.75;5347379;33;32053;-81
2022/05/17 11:12:08;;;;;;;3.67;2.65;;;;;;;21.54;69.76;100428.41;5348809;33;33355;-81
2022/05/17 11:15:22;;;;;;;4.82;2.90;;;;;;;21.75;69.59;100433.13;5361625;33;33523;-81
2022/05/17 11:18:49;;;;;;;7.07;2.70;;;;;;;21.94;66.06;100433.72;5339938;33;31421;-82
2022/05/17 11:22:00;;;;;;;5.43;2.92;;;;;;;21.96;65.28;100429.59;5352325;33;33371;-82
2022/05/17 11:25:12;;;;;;;5.43;3.12;;;;;;;21.89;68.56;100426.22;5354444;33;34042;-82
2022/05/17 11:28:53;;;;;;;4.87;3.28;;;;;;;21.88;68.86;100419.09;5340069;33;33106;-82
2022/05/17 11:31:58;;;;;;;5.85;3.30;;;;;;;21.70;68.29;100419.34;5356504;33;33120;-82
2022/05/17 11:35:26;;;;;;;5.15;3.42;;;;;;;21.67;70.58;100414.38;5338840;33;32043;-82
2022/05/17 11:38:32;;;;;;;3.67;3.00;;;;;;;21.60;67.92;100408.25;5358261;33;33734;-81
2022/05/17 11:41:44;;;;;;;3.75;2.90;;;;;;;21.62;67.14;100406.91;5356733;33;33869;-82
2022/05/17 11:44:48;;;;;;;4.05;3.15;;;;;;;21.57;70.88;100401.34;5341894;33;31693;-81
2022/05/17 11:47:58;;;;;;;7.20;3.50;;;;;;;21.54;66.67;100390.06;5345052;33;32296;-83
2022/05/17 11:51:01;;;;;;;3.25;2.78;;;;;;;21.48;64.19;100392.72;5337332;33;31907;-80
2022/05/17 11:54:08;;;;;;;4.40;2.72;;;;;;;21.60;66.73;100389.06;5349659;33;33463;-81
2022/05/17 11:57:37;;;;;;;2.92;2.60;;;;;;;21.84;62.66;100393.25;5351244;33;34235;-82
2022/05/17 12:00:43;;;;;;;6.07;2.92;;;;;;;22.05;63.41;100383.41;5337412;33;31885;-82
2022/05/17 12:03:53;;;;;;;4.05;2.90;;;;;;;22.19;64.16;100383.88;5351702;33;33031;-82
2022/05/17 12:06:55;;;;;;;3.62;2.85;;;;;;;22.05;63.28;100380.66;5336318;33;32180;-82
2022/05/17 12:10:12;;;;;;;3.25;2.95;;;;;;;21.84;64.14;100375.97;5351840;33;34123;-82
2022/05/17 12:13:17;;;;;;;3.42;2.28;;;;;;;21.66;62.66;100377.91;5336425;33;31835;-82
2022/05/17 12:16:28;;;;;;;3.65;2.72;;;;;;;21.65;66.47;100372.72;5338494;33;31915;-82
2022/05/17 12:19:40;;;;;;;2.83;2.50;;;;;;;21.62;63.78;100376.78;5338473;33;32591;-82
2022/05/17 12:23:09;;;;;;;2.95;2.62;;;;;;;21.77;64.38;100372.59;5341445;33;33413;-82
2022/05/17 12:26:42;;;;;;;2.78;2.58;;;;;;;22.12;61.86;100369.53;5343773;33;31831;-82
2022/05/17 12:33:19;;;;;;;2.47;2.28;;;;;;;22.99;59.79;100360.41;5345500;33;31207;-82
2022/05/17 12:36:29;;;;;;;3.12;2.30;;;;;;;23.65;55.40;100359.25;5363868;33;34809;-85
2022/05/17 12:43:06;;;;;;;3.08;2.60;;;;;;;23.36;57.53;100361.50;5366985;33;33551;-82
2022/05/17 12:46:24;;;;;;;4.32;2.53;;;;;;;22.85;57.97;100356.38;5347645;33;31474;-82
2022/05/17 12:49:31;;;;;;;2.83;2.58;;;;;;;22.34;60.38;100353.91;5369323;33;33490;-82
2022/05/17 12:52:41;;;;;;;2.20;2.00;;;;;;;22.19;61.55;100357.28;5360921;33;33787;-82
2022/05/17 12:56:08;;;;;;;2.50;2.28;;;;;;;22.30;61.10;100346.47;5360164;33;33531;-82
2022/05/17 12:59:12;;;;;;;4.57;2.97;;;;;;;22.32;61.16;100345.13;5348348;33;33525;-81
2022/05/17 13:02:25;;;;;;;5.18;2.70;;;;;;;22.14;60.73;100342.66;5345636;33;34113;-82
2022/05/17 13:05:33;;;;;;;2.60;2.35;;;;;;;21.89;62.46;100345.91;5341988;33;152763;-82
2022/05/17 13:08:38;;;;;;;3.65;2.95;;;;;;;21.64;62.28;100333.50;5359244;33;33783;-81
2022/05/17 13:11:41;;;;;;;2.85;2.37;;;;;;;21.50;65.25;100335.78;5342550;33;32413;-81
2022/05/17 13:14:48;;;;;;;3.60;3.20;;;;;;;21.30;65.06;100338.19;5347311;33;33087;-80
2022/05/17 13:17:56;;;;;;;3.60;2.70;;;;;;;21.03;65.56;100338.84;5347035;33;34097;-81
2022/05/17 13:21:00;;;;;;;3.75;3.37;;;;;;;20.78;68.13;100343.88;5345243;33;32083;-81
2022/05/17 13:24:07;;;;;;;5.85;3.80;;;;;;;20.54;71.08;100340.41;5345142;33;32507;-81
2022/05/17 13:27:33;;;;;;;5.57;3.87;;;;;;;20.07;76.44;100351.47;5346170;33;32795;-84
2022/05/17 13:30:43;;;;;;;6.12;3.70;;;;;;;18.94;86.23;100369.81;5360012;33;33536;-82
2022/05/17 13:34:00;;;;;;;6.35;4.53;;;;;;;18.02;96.75;100365.34;5357592;33;33971;-82
2022/05/17 13:37:13;;;;;;;7.43;4.87;;;;;;;17.51;100.00;100355.56;5341086;33;31754;-82
2022/05/17 13:40:38;;;;;;;6.72;4.50;;;;;;;17.38;100.00;100359.25;5354221;33;33152;-82
2022/05/17 13:43:40;;;;;;;7.60;4.75;;;;;;;17.35;100.00;100348.00;5333953;33;33011;-83
2022/05/17 13:46:48;;;;;;;7.35;5.00;;;;;;;17.34;100.00;100352.56;5355015;33;32986;-83
2022/05/17 13:49:52;;;;;;;6.60;4.90;;;;;;;17.38;100.00;100345.66;5351698;33;32713;-84
2022/05/17 13:53:00;;;;;;;6.60;4.78;;;;;;;17.68;100.00;100337.59;5348131;33;32734;-83
2022/05/17 13:56:04;;;;;;;9.23;5.22;;;;;;;17.96;100.00;100329.97;5359736;33;34254;-83
2022/05/17 13:59:07;;;;;;;7.75;5.00;;;;;;;18.09;100.00;100330.66;5344891;33;32866;-84
2022/05/17 14:02:29;;;;;;;6.22;5.32;;;;;;;18.35;100.00;100334.94;5362878;33;34193;-83
2022/05/17 14:05:54;;;;;;;6.60;5.70;;;;;;;18.56;100.00;100328.16;5349653;33;33792;-82
2022/05/17 14:12:22;;;;;;;7.57;6.00;;;;;;;19.53;100.00;100310.63;5344887;33;33053;-83
2022/05/17 14:15:25;;;;;;;9.57;6.50;;;;;;;20.14;97.25;100314.72;5357503;33;34052;-81
2022/05/17 14:18:38;;;;;;;10.75;6.35;;;;;;;20.57;95.12;100301.63;5336514;33;32345;-82
2022/05/17 14:21:43;;;;;;;8.38;6.12;;;;;;;20.95;90.04;100309.13;5355224;33;33646;-82
2022/05/17 14:24:47;;;;;;;8.18;5.75;;;;;;;21.19;85.72;100307.06;5341054;33;32170;-82
2022/05/17 14:27:50;;;;;;;7.68;5.25;;;;;;;21.44;87.38;100300.31;5342285;33;33669;-82
2022/05/17 14:30:56;;;;;;;9.77;5.57;;;;;;;21.13;83.63;100312.72;5352623;33;33331;-82
2022/05/17 14:34:00;;;;;;;7.25;5.12;;;;;;;20.81;86.06;100313.25;5343557;33;31532;-82
2022/05/17 14:37:03;;;;;;;6.25;5.22;;;;;;;20.59;87.09;100307.66;5356990;33;33803;-82
2022/05/17 14:40:07;;;;;;;6.18;5.35;;;;;;;20.26;86.15;100302.91;5357524;33;33352;-82
2022/05/17 14:43:10;;;;;;;5.55;4.95;;;;;;;20.13;89.00;100296.66;5357318;33;33674;-82
2022/05/17 14:46:17;;;;;;;7.70;5.45;;;;;;;19.92;87.55;100298.16;5357301;33;34269;-82
2022/05/17 14:49:26;;;;;;;5.45;4.85;;;;;;;19.86;89.53;100293.66;5362071;33;34396;-82
2022/05/17 14:52:29;;;;;;;6.40;5.25;;;;;;;19.84;90.24;100304.00;5347094;33;31971;-82
2022/05/17 14:55:32;;;;;;;7.03;5.35;;;;;;;19.74;89.85;100292.84;5344423;33;33302;-81
2022/05/17 14:58:35;;;;;;;7.40;5.62;;;;;;;19.72;89.89;100285.97;5345804;33;33405;-82
2022/05/17 15:01:44;;;;;;;9.60;5.37;;;;;;;19.71;90.06;100287.84;5360156;33;33904;-82
2022/05/17 15:04:47;;;;;;;7.00;5.10;;;;;;;19.81;88.81;100292.72;5360264;33;34119;-82
2022/05/17 15:07:53;;;;;;;7.70;5.30;;;;;;;20.00;87.33;100299.66;5346440;33;32500;-82
2022/05/17 15:10:55;;;;;;;6.55;4.85;;;;;;;20.36;88.71;100303.12;5355577;33;34138;-82
2022/05/17 15:13:58;;;;;;;6.82;5.00;;;;;;;20.55;85.08;100299.13;5360258;33;33730;-82
2022/05/17 15:17:02;;;;;;;8.02;5.03;;;;;;;20.81;85.30;100299.59;5356249;33;32016;-82
2022/05/17 15:20:10;;;;;;;8.73;5.45;;;;;;;21.02;81.94;100296.09;5352828;33;32398;-82
2022/05/17 15:23:13;;;;;;;5.53;4.90;;;;;;;20.96;81.32;100294.37;5363018;33;32917;-83
2022/05/17 15:26:16;;;;;;;6.12;4.35;;;;;;;20.91;80.93;100297.00;5360633;33;33496;-83
2022/05/17 15:29:18;;;;;;;6.60;5.22;;;;;;;20.96;81.24;100291.63;5347879;33;33209;-83
2022/05/17 15:32:21;;;;;;;4.93;3.87;;;;;;;21.05;81.70;100295.59;5360793;33;33678;-83
2022/05/17 15:35:30;;;;;;;4.25;3.85;;;;;;;21.31;82.29;100292.44;5346458;33;32466;-83
2022/05/17 15:38:36;;;;;;;8.35;4.65;;;;;;;21.33;80.61;100288.37;5344371;33;33045;-86
2022/05/17 15:41:39;;;;;;;5.78;4.15;;;;;;;21.15;82.11;100292.22;5360005;33;34634;-85
2022/05/17 15:44:42;;;;;;;6.05;3.60;;;;;;;21.02;81.40;100282.41;5361285;33;33805;-84
2022/05/17 15:54:32;;;;;;;5.72;3.92;;;;;;;20.47;81.03;100283.06;5355249;33;33396;-81
2022/05/17 15:57:35;;;;;;;5.05;4.12;;;;;;;20.33;84.12;100282.56;5345930;33;31904;-81
2022/05/17 16:00:40;;;;;;;5.55;4.45;;;;;;;20.19;82.84;100274.91;5359412;33;33691;-81
2022/05/17 16:03:46;;;;;;;8.02;5.25;;;;;;;20.04;83.91;100276.25;5346942;33;32157;-82
2022/05/17 16:06:51;;;;;;;6.00;4.78;;;;;;;19.93;87.41;100277.94;5359487;33;34872;-81
2022/05/17 16:09:54;;;;;;;6.60;4.68;;;;;;;19.75;86.36;100280.84;5331470;33;32108;-82
2022/05/17 16:12:58;;;;;;;8.52;4.72;;;;;;;19.70;87.10;100280.75;5346090;33;31440;-82
